CheckWX is a tool to help pilots better visualize weather data.  It is not intended as a substitute for an official pre-flight weather briefing.

23:47:49 UTC

KSPS METAR
Sheppard AFB / Wichita Falls Municipal Airport
Wichita Falls, Texas, USA
Current

56 mins ago

KSPS 222252Z 34008KT 10SM OVC024 06/02 A3011 RMK AO2 SLP199 T00560017
Observed
Nov-22 @ 22:52 UTC
Wind
  • 340° at 8 KTS
Visibility
10 SM
Flight Rules
MVFR
Cloud Levels
  • Overcast at 2,400' AGL
Temperature
C / 43°F
Dewpoint
C / 36°F
Humidity
76%
Altimeter
30.11" Hg
Pressure
1019.62 hPa
Previous

2 hours ago

KSPS 222152Z 32013KT 10SM OVC020 06/02 A3011 RMK AO2 SLP199 T00560017
Observed
Nov-22 @ 21:52 UTC
Wind
  • 320° at 13 KTS
Visibility
10 SM
Flight Rules
MVFR
Cloud Levels
  • Overcast at 2,000' AGL
Temperature
C / 43°F
Dewpoint
C / 36°F
Humidity
76%
Altimeter
30.11" Hg
Pressure
1019.62 hPa
Previous

3 hours ago

KSPS 222052Z 33013KT 10SM OVC020 06/02 A3012 RMK AO2 SLP200 T00610022 56019
Observed
Nov-22 @ 20:52 UTC
Wind
  • 330° at 13 KTS
Visibility
10 SM
Flight Rules
MVFR
Cloud Levels
  • Overcast at 2,000' AGL
Temperature
C / 43°F
Dewpoint
C / 36°F
Humidity
76%
Altimeter
30.12" Hg
Pressure
1020.02 hPa